Terminal Aerodrome Forecast
Issued by NWS

Current Version | Previous Version | Text Only | Print | Product List | Glossary On
Versions: 1 2 3 4 5 6 7 8 9 10 11 12 13 14 15 16 17 18
000
FTUS43 KTOP 102300
TAFFOE
TAF
KFOE 102329Z 1100/1124 14013G20KT P6SM FEW050
     FM110200 15009KT P6SM SCT080
     FM111700 18013G21KT P6SM SCT100=

USA.gov is the U.S. government's official web portal to all federal, state and local government web resources and services.